createdAt,value
2018-11-21T00:01:13.927Z,55.00
2018-11-21T00:03:41.577Z,55.40
2018-11-21T00:06:09.187Z,56.10
2018-11-21T00:08:36.957Z,56.00
2018-11-21T00:11:04.653Z,56.40
2018-11-21T00:13:32.344Z,56.10
2018-11-21T00:15:59.964Z,55.90
2018-11-21T00:18:27.610Z,56.30
2018-11-21T00:20:55.241Z,56.70
2018-11-21T00:23:22.830Z,56.40
2018-11-21T00:25:50.514Z,56.20
2018-11-21T00:28:18.136Z,56.90
2018-11-21T00:30:45.713Z,55.70
2018-11-21T00:33:13.316Z,55.90
2018-11-21T00:35:40.866Z,56.00
2018-11-21T00:38:08.505Z,56.90
2018-11-21T00:40:36.101Z,57.50
2018-11-21T00:43:03.967Z,58.40
2018-11-21T00:45:31.641Z,58.00
2018-11-21T00:47:59.373Z,58.20
2018-11-21T00:50:27.014Z,58.00
2018-11-21T00:52:54.756Z,57.90
2018-11-21T00:55:22.367Z,58.30
2018-11-21T00:57:49.985Z,58.30
2018-11-21T01:00:17.597Z,58.90
2018-11-21T01:02:45.158Z,58.70
2018-11-21T01:05:12.724Z,58.20
2018-11-21T01:07:40.306Z,58.60
2018-11-21T01:10:07.816Z,58.60
2018-11-21T01:12:35.447Z,59.70
2018-11-21T01:15:03.031Z,59.20
2018-11-21T01:17:30.670Z,59.30
2018-11-21T01:19:58.231Z,59.90
2018-11-21T01:22:25.837Z,59.80
2018-11-21T01:24:53.468Z,59.90
2018-11-21T01:27:21.147Z,59.80
2018-11-21T01:29:48.691Z,59.30
2018-11-21T01:32:16.272Z,59.80
2018-11-21T01:34:43.931Z,60.10
2018-11-21T01:37:12.371Z,60.60
2018-11-21T01:39:39.963Z,61.10
2018-11-21T01:42:07.602Z,60.90
2018-11-21T01:44:35.200Z,61.00
2018-11-21T01:47:02.852Z,60.70
2018-11-21T01:49:31.517Z,61.10
2018-11-21T01:51:59.168Z,61.00
2018-11-21T01:54:26.957Z,61.40
2018-11-21T01:56:54.610Z,61.90
2018-11-21T01:59:22.192Z,60.80
2018-11-21T02:01:49.799Z,61.00
2018-11-21T02:04:17.406Z,61.20
2018-11-21T02:06:45.025Z,61.60
2018-11-21T02:09:12.611Z,61.80
2018-11-21T02:11:40.198Z,62.10
2018-11-21T02:14:07.876Z,61.80
2018-11-21T02:16:35.771Z,61.10
2018-11-21T02:19:03.589Z,61.20
2018-11-21T02:21:31.271Z,61.10
2018-11-21T02:23:58.878Z,61.50
2018-11-21T02:26:26.645Z,62.20
2018-11-21T02:28:54.198Z,62.00
2018-11-21T02:31:21.737Z,62.10
2018-11-21T02:33:49.333Z,61.60
2018-11-21T02:36:16.931Z,61.50
2018-11-21T02:38:44.519Z,61.00
2018-11-21T02:41:12.087Z,61.20
2018-11-21T02:43:39.661Z,61.30
2018-11-21T02:46:07.212Z,61.00
2018-11-21T02:48:34.795Z,61.50
2018-11-21T02:51:02.335Z,61.60
2018-11-21T02:53:30.116Z,61.70
2018-11-21T02:55:57.705Z,62.40
2018-11-21T02:58:25.304Z,61.90
2018-11-21T03:00:52.836Z,61.90
2018-11-21T03:03:20.483Z,62.10
2018-11-21T03:05:48.727Z,61.80
2018-11-21T03:08:16.347Z,62.10
2018-11-21T03:10:44.017Z,62.10
2018-11-21T03:13:11.620Z,61.50
2018-11-21T03:15:39.225Z,62.10
2018-11-21T03:18:06.806Z,62.30
2018-11-21T03:20:34.411Z,61.50
2018-11-21T03:23:02.071Z,61.30
2018-11-21T03:25:29.692Z,62.00
2018-11-21T03:27:57.293Z,61.40
2018-11-21T03:30:24.910Z,61.70
2018-11-21T03:32:52.697Z,62.60
2018-11-21T03:35:20.411Z,62.00
2018-11-21T03:37:47.969Z,62.30
2018-11-21T03:40:15.592Z,62.00
2018-11-21T03:42:43.219Z,61.90
2018-11-21T03:45:11.660Z,61.60
2018-11-21T03:47:39.347Z,62.40
2018-11-21T03:50:09.307Z,62.50
2018-11-21T03:52:37.202Z,63.00
2018-11-21T03:55:05.481Z,62.90
2018-11-21T03:57:33.055Z,63.00
2018-11-21T04:00:00.658Z,63.40
2018-11-21T04:02:28.247Z,64.10
2018-11-21T04:04:55.835Z,63.70
2018-11-21T04:07:23.423Z,63.50
2018-11-21T04:09:50.968Z,63.50
2018-11-21T04:12:18.511Z,63.20
2018-11-21T04:14:46.090Z,62.60
2018-11-21T04:17:13.702Z,63.00
2018-11-21T04:19:41.260Z,62.60
2018-11-21T04:22:08.879Z,63.10
2018-11-21T04:24:36.459Z,63.70
2018-11-21T04:27:04.189Z,63.20
2018-11-21T04:29:31.775Z,63.30
2018-11-21T04:31:59.360Z,63.40
2018-11-21T04:34:26.948Z,64.20
2018-11-21T04:36:54.516Z,64.30
2018-11-21T04:39:22.132Z,64.70
2018-11-21T04:41:49.677Z,65.00
2018-11-21T04:44:17.236Z,65.10
2018-11-21T04:46:44.815Z,64.70
2018-11-21T04:49:12.438Z,65.30
2018-11-21T04:51:39.998Z,65.30
2018-11-21T04:54:07.554Z,65.30
2018-11-21T04:56:35.091Z,64.60
2018-11-21T04:59:02.612Z,64.80
2018-11-21T05:01:30.284Z,64.80
2018-11-21T05:03:58.342Z,65.30
2018-11-21T05:06:25.988Z,65.10
2018-11-21T05:08:53.551Z,64.70
2018-11-21T05:11:21.258Z,64.60
2018-11-21T05:13:48.759Z,64.90
2018-11-21T05:16:16.509Z,65.00
2018-11-21T05:18:44.161Z,65.30
2018-11-21T05:21:11.804Z,65.50
2018-11-21T05:23:39.367Z,65.50
2018-11-21T05:26:06.946Z,65.40
2018-11-21T05:28:34.598Z,65.00
2018-11-21T05:31:02.192Z,65.40
2018-11-21T05:33:29.830Z,65.60
2018-11-21T05:35:57.412Z,65.80
2018-11-21T05:38:25.099Z,65.60
2018-11-21T05:40:52.703Z,65.70
2018-11-21T05:43:20.335Z,65.50
2018-11-21T05:45:47.910Z,64.90
2018-11-21T05:48:15.522Z,64.70
2018-11-21T05:50:43.165Z,65.40
2018-11-21T05:53:10.761Z,64.10
2018-11-21T05:55:38.293Z,64.50
2018-11-21T05:58:05.988Z,63.60
2018-11-21T06:00:33.646Z,63.70
2018-11-21T06:03:01.256Z,62.90
2018-11-21T06:05:28.830Z,63.10
2018-11-21T06:07:56.447Z,62.70
2018-11-21T06:10:24.068Z,62.40
2018-11-21T06:12:51.781Z,61.40
2018-11-21T06:15:19.384Z,60.10
2018-11-21T06:17:48.303Z,59.00
2018-11-21T06:20:15.013Z,58.90
2018-11-21T06:22:43.188Z,59.00
2018-11-21T06:25:11.480Z,58.90
2018-11-21T06:27:39.333Z,59.70
2018-11-21T06:30:12.622Z,60.50
2018-11-21T06:32:40.748Z,61.70
2018-11-21T06:35:09.743Z,62.60
2018-11-21T06:37:37.767Z,64.40
2018-11-21T06:40:10.320Z,65.30
2018-11-21T06:42:38.031Z,66.30
2018-11-21T06:45:07.596Z,66.70
2018-11-21T06:47:35.224Z,67.10
2018-11-21T06:50:03.047Z,66.90
2018-11-21T06:52:30.714Z,67.00
2018-11-21T06:54:58.352Z,66.90
2018-11-21T06:57:26.031Z,67.00
2018-11-21T06:59:53.651Z,67.10
2018-11-21T07:02:21.259Z,67.10
2018-11-21T07:04:48.833Z,67.20
2018-11-21T07:07:16.527Z,66.90
2018-11-21T07:09:44.142Z,66.60
2018-11-21T07:12:11.765Z,66.50
2018-11-21T07:14:39.360Z,66.10
2018-11-21T07:17:06.914Z,66.10
2018-11-21T07:19:34.498Z,65.90
2018-11-21T07:22:02.477Z,66.30
2018-11-21T07:24:30.107Z,66.10
2018-11-21T07:26:57.806Z,66.00
2018-11-21T07:29:25.453Z,66.00
2018-11-21T07:31:53.203Z,65.60
2018-11-21T07:34:21.641Z,65.70
2018-11-21T07:36:50.249Z,65.80
2018-11-21T07:39:17.828Z,65.90
2018-11-21T07:41:45.605Z,65.60
2018-11-21T07:44:13.299Z,65.90
2018-11-21T07:46:40.980Z,65.90
2018-11-21T07:49:08.796Z,65.90
2018-11-21T07:51:36.416Z,65.80
2018-11-21T07:54:04.471Z,65.70
2018-11-21T07:57:23.862Z,65.70
2018-11-21T08:00:47.047Z,65.70
2018-11-21T08:03:14.889Z,65.40
2018-11-21T08:05:45.030Z,65.00
2018-11-21T08:08:27.740Z,64.80
2018-11-21T08:11:13.473Z,64.80
2018-11-21T08:13:59.286Z,64.80
2018-11-21T08:16:55.544Z,64.70
2018-11-21T08:19:41.206Z,64.70
2018-11-21T08:22:30.485Z,64.90
2018-11-21T08:25:16.030Z,64.30
2018-11-21T08:28:12.107Z,64.00
2018-11-21T08:30:39.724Z,64.00
2018-11-21T08:33:07.551Z,63.80
2018-11-21T08:35:35.144Z,64.70
2018-11-21T08:38:02.744Z,63.80
2018-11-21T08:40:30.384Z,63.10
2018-11-21T08:42:57.999Z,63.00
2018-11-21T08:45:25.575Z,63.10
2018-11-21T08:47:53.608Z,62.90
2018-11-21T08:52:54.932Z,62.50
2018-11-21T08:55:22.578Z,62.60
2018-11-21T08:57:50.205Z,62.60
2018-11-21T09:00:17.883Z,62.20
2018-11-21T09:02:45.582Z,62.00
2018-11-21T09:05:13.150Z,62.00
2018-11-21T09:07:41.366Z,62.00
2018-11-21T09:10:13.076Z,62.00
2018-11-21T09:12:40.957Z,62.30
2018-11-21T09:15:11.867Z,61.60
2018-11-21T09:17:39.853Z,61.30
2018-11-21T09:20:08.851Z,61.20
2018-11-21T09:22:38.742Z,61.00
2018-11-21T09:25:08.477Z,60.90
2018-11-21T09:27:36.551Z,61.20
2018-11-21T09:30:12.105Z,60.80
2018-11-21T09:32:39.908Z,61.00
2018-11-21T09:35:10.556Z,60.80
2018-11-21T09:37:38.239Z,60.70
2018-11-21T09:40:12.149Z,60.30
2018-11-21T09:42:41.133Z,60.40
2018-11-21T09:45:11.436Z,60.40
2018-11-21T09:47:38.934Z,60.30
2018-11-21T09:50:11.111Z,60.30
2018-11-21T09:52:38.849Z,60.20
2018-11-21T09:55:06.813Z,60.40
2018-11-21T09:57:34.451Z,59.80
2018-11-21T10:00:02.746Z,60.10
2018-11-21T10:03:13.408Z,59.50
2018-11-21T10:05:42.126Z,60.00
2018-11-21T10:08:52.285Z,59.40
2018-11-21T10:11:20.399Z,59.30
2018-11-21T10:13:48.152Z,58.80
2018-11-21T10:16:15.931Z,58.50
2018-11-21T10:18:45.013Z,58.60
2018-11-21T10:21:14.154Z,58.80
2018-11-21T10:23:41.816Z,58.40
2018-11-21T10:26:09.737Z,58.50
2018-11-21T10:28:37.871Z,57.80
2018-11-21T10:31:05.544Z,57.90
2018-11-21T10:33:33.356Z,58.30
2018-11-21T10:36:01.449Z,58.50
2018-11-21T10:38:29.165Z,57.50
2018-11-21T10:40:56.824Z,57.50
2018-11-21T10:43:28.380Z,57.60
2018-11-21T10:45:52.207Z,57.80
2018-11-21T10:48:19.895Z,58.00
2018-11-21T10:50:47.515Z,57.90
2018-11-21T10:53:15.223Z,57.30
2018-11-21T10:55:42.849Z,57.10
2018-11-21T10:58:10.922Z,57.10
2018-11-21T11:00:56.748Z,57.40
2018-11-21T11:03:43.971Z,58.00
2018-11-21T11:06:46.272Z,58.60
2018-11-21T11:09:36.214Z,58.70
2018-11-21T11:12:22.225Z,58.60
2018-11-21T11:15:09.593Z,57.80
2018-11-21T11:17:59.473Z,57.60
2018-11-21T11:20:42.514Z,57.70
2018-11-21T11:23:28.578Z,57.10
2018-11-21T11:26:34.138Z,57.10
2018-11-21T11:29:22.761Z,56.50
2018-11-21T11:32:28.063Z,55.40
2018-11-21T11:35:14.029Z,54.40
2018-11-21T11:38:03.912Z,54.60
2018-11-21T11:40:49.913Z,54.40
2018-11-21T11:43:35.498Z,54.50
2018-11-21T11:46:34.727Z,53.80
2018-11-21T11:49:40.120Z,54.00
2018-11-21T11:52:33.362Z,54.00
2018-11-21T11:55:29.439Z,54.10
2018-11-21T11:58:16.695Z,54.00
2018-11-21T12:01:06.630Z,54.00
2018-11-21T12:03:57.737Z,54.10
2018-11-21T12:06:38.319Z,53.90
2018-11-21T12:09:25.924Z,53.90
2018-11-21T12:12:13.123Z,54.20
2018-11-21T12:14:59.020Z,54.20
2018-11-21T12:17:44.773Z,54.00
2018-11-21T12:20:31.243Z,53.60
2018-11-21T12:23:18.417Z,53.60
2018-11-21T12:26:11.399Z,53.90
2018-11-21T12:29:00.471Z,53.90
2018-11-21T12:31:52.422Z,54.10
2018-11-21T12:34:45.378Z,54.20
2018-11-21T12:37:51.447Z,54.10
2018-11-21T12:40:37.613Z,54.00
2018-11-21T12:43:40.242Z,54.00
2018-11-21T12:46:26.082Z,54.00
2018-11-21T12:49:22.172Z,54.20
2018-11-21T12:52:08.327Z,54.40
2018-11-21T12:54:47.100Z,54.70
2018-11-21T12:57:37.058Z,54.50
2018-11-21T13:00:18.441Z,54.50
2018-11-21T13:03:05.717Z,54.10
2018-11-21T13:05:54.344Z,54.10
2018-11-21T13:08:47.794Z,54.10
2018-11-21T13:11:23.469Z,54.30
2018-11-21T13:14:04.530Z,54.40
2018-11-21T13:17:09.952Z,54.20
2018-11-21T13:19:59.990Z,54.90
2018-11-21T13:23:05.935Z,54.70
2018-11-21T13:25:53.155Z,54.50
2018-11-21T13:28:43.115Z,54.40
2018-11-21T13:31:35.851Z,54.20
2018-11-21T13:34:21.819Z,54.40
2018-11-21T13:37:09.032Z,54.40
2018-11-21T13:40:08.332Z,54.60
2018-11-21T13:42:55.368Z,54.00
2018-11-21T13:45:41.409Z,54.30
2018-11-21T13:48:37.068Z,54.00
2018-11-21T13:51:36.368Z,54.00
2018-11-21T13:54:23.674Z,53.90
2018-11-21T13:56:51.275Z,53.90
2018-11-21T13:59:18.917Z,54.20
2018-11-21T14:01:46.679Z,54.10
2018-11-21T14:04:15.811Z,53.90
2018-11-21T14:06:43.541Z,53.60
2018-11-21T14:09:12.583Z,54.00
2018-11-21T14:11:40.197Z,53.90
2018-11-21T14:14:08.724Z,54.20
2018-11-21T14:16:36.463Z,54.40
2018-11-21T14:19:05.175Z,54.70
2018-11-21T14:21:32.807Z,54.80
2018-11-21T14:24:00.485Z,54.90
2018-11-21T14:26:28.297Z,54.70
2018-11-21T14:28:55.971Z,55.00
2018-11-21T14:31:24.086Z,55.00
2018-11-21T14:33:51.915Z,54.80
2018-11-21T14:36:19.598Z,54.70
2018-11-21T14:38:47.356Z,54.70
2018-11-21T14:41:15.237Z,54.80
2018-11-21T14:43:42.959Z,54.60
2018-11-21T14:46:10.656Z,54.60
2018-11-21T14:48:38.745Z,54.80
2018-11-21T14:51:06.430Z,55.10
2018-11-21T14:53:34.150Z,55.00
2018-11-21T14:56:01.947Z,55.00
2018-11-21T14:58:29.783Z,55.20
2018-11-21T15:00:57.450Z,55.10
2018-11-21T15:03:25.335Z,55.00
2018-11-21T15:05:53.010Z,55.10
2018-11-21T15:08:20.720Z,55.30
2018-11-21T15:10:49.217Z,55.40
2018-11-21T15:13:17.578Z,55.50
2018-11-21T15:15:45.285Z,55.80
2018-11-21T15:18:13.101Z,55.90
2018-11-21T15:20:40.767Z,56.00
2018-11-21T15:23:08.472Z,55.40
2018-11-21T15:25:36.297Z,55.50
2018-11-21T15:28:04.039Z,55.40
2018-11-21T15:30:31.930Z,55.70
2018-11-21T15:32:59.613Z,56.10
2018-11-21T15:35:27.726Z,56.30
2018-11-21T15:37:55.391Z,56.40
2018-11-21T15:40:24.304Z,56.30
2018-11-21T15:42:52.119Z,56.90
2018-11-21T15:45:21.505Z,56.50
2018-11-21T15:47:54.934Z,56.40
2018-11-21T15:50:22.694Z,55.60
2018-11-21T15:52:53.145Z,54.20
2018-11-21T15:55:18.763Z,54.70
2018-11-21T15:57:46.687Z,54.50
2018-11-21T16:00:17.716Z,54.70
2018-11-21T16:02:46.864Z,54.50
2018-11-21T16:05:15.118Z,53.90
2018-11-21T16:07:42.871Z,54.50
2018-11-21T16:10:18.916Z,53.80
2018-11-21T16:12:46.053Z,54.60
2018-11-21T16:15:17.999Z,53.90
2018-11-21T16:17:45.833Z,54.00
2018-11-21T16:20:14.784Z,53.60
2018-11-21T16:22:42.603Z,53.70
2018-11-21T16:25:12.626Z,53.00
2018-11-21T16:27:40.986Z,53.40
2018-11-21T16:30:17.900Z,53.60
2018-11-21T16:32:46.136Z,53.80
2018-11-21T16:35:14.174Z,53.60
2018-11-21T16:37:45.238Z,54.70
2018-11-21T16:40:18.743Z,53.20
2018-11-21T16:42:46.811Z,52.70
2018-11-21T16:45:16.435Z,53.00
2018-11-21T16:47:44.121Z,53.20
2018-11-21T16:50:14.079Z,53.70
2018-11-21T16:52:41.891Z,53.40
2018-11-21T16:55:12.184Z,54.00
2018-11-21T16:57:40.002Z,53.90
2018-11-21T17:00:14.689Z,54.10
2018-11-21T17:02:42.538Z,53.60
2018-11-21T17:05:11.915Z,54.20
2018-11-21T17:07:40.093Z,53.80
2018-11-21T17:10:10.852Z,53.80
2018-11-21T17:12:38.759Z,52.90
2018-11-21T17:15:10.726Z,53.90
2018-11-21T17:17:38.654Z,53.60
2018-11-21T17:20:11.039Z,53.60
2018-11-21T17:22:38.836Z,53.40
2018-11-21T17:25:10.926Z,53.20
2018-11-21T17:27:39.260Z,52.80
2018-11-21T17:30:10.666Z,53.00
2018-11-21T17:32:39.738Z,53.60
2018-11-21T17:35:08.800Z,53.20
2018-11-21T17:37:36.650Z,52.80
2018-11-21T17:40:14.828Z,52.30
2018-11-21T17:42:42.534Z,53.10
2018-11-21T17:45:11.275Z,52.80
2018-11-21T17:47:39.480Z,53.50
2018-11-21T17:50:11.041Z,53.80
2018-11-21T17:52:39.124Z,53.60
2018-11-21T17:55:10.422Z,54.00
2018-11-21T17:57:38.661Z,53.40
2018-11-21T18:00:14.871Z,52.40
2018-11-21T18:02:45.395Z,52.20
2018-11-21T18:05:14.740Z,51.40
2018-11-21T18:07:42.449Z,51.60
2018-11-21T18:10:16.192Z,51.80
2018-11-21T18:12:47.119Z,51.50
2018-11-21T18:15:15.570Z,51.40
2018-11-21T18:17:44.525Z,51.40
2018-11-21T18:20:13.057Z,51.40
2018-11-21T18:22:41.696Z,51.80
2018-11-21T18:25:12.435Z,51.70
2018-11-21T18:27:40.187Z,51.50
2018-11-21T18:30:13.713Z,51.40
2018-11-21T18:32:42.970Z,51.10
2018-11-21T18:35:12.480Z,51.80
2018-11-21T18:37:40.464Z,51.60
2018-11-21T18:40:12.049Z,51.60
2018-11-21T18:42:40.082Z,51.80
2018-11-21T18:45:14.908Z,51.40
2018-11-21T18:47:43.541Z,51.60
2018-11-21T18:50:15.611Z,51.50
2018-11-21T18:52:44.273Z,51.60
2018-11-21T18:55:14.880Z,51.30
2018-11-21T18:58:59.833Z,51.50
2018-11-21T19:01:28.200Z,51.70
2018-11-21T19:03:56.203Z,52.10
2018-11-21T19:06:24.067Z,52.20
2018-11-21T19:08:51.873Z,52.10
2018-11-21T19:11:19.666Z,52.20
2018-11-21T19:13:47.397Z,52.10
2018-11-21T19:16:15.240Z,52.10
2018-11-21T19:18:43.073Z,51.30
2018-11-21T19:21:10.938Z,52.30
2018-11-21T19:23:39.112Z,53.30
2018-11-21T19:26:07.584Z,53.60
2018-11-21T19:28:35.346Z,53.60
2018-11-21T19:31:03.198Z,54.10
2018-11-21T19:33:31.504Z,54.40
2018-11-21T19:35:59.689Z,54.20
2018-11-21T19:38:27.473Z,54.70
2018-11-21T19:40:55.249Z,54.30
2018-11-21T19:43:24.126Z,54.50
2018-11-21T19:45:50.945Z,54.00
2018-11-21T19:48:18.726Z,54.20
2018-11-21T19:50:46.476Z,54.40
2018-11-21T19:53:15.504Z,54.90
2018-11-21T19:55:43.793Z,55.10
2018-11-21T19:58:11.615Z,54.90
2018-11-21T20:00:39.695Z,55.20
2018-11-21T20:03:07.445Z,54.70
2018-11-21T20:05:35.306Z,55.10
2018-11-21T20:08:03.104Z,56.10
2018-11-21T20:10:30.913Z,55.70
2018-11-21T20:12:58.713Z,55.80
2018-11-21T20:15:27.298Z,56.20
2018-11-21T20:17:56.820Z,55.50
2018-11-21T20:20:24.633Z,55.40
2018-11-21T20:22:52.889Z,55.70
2018-11-21T20:25:21.471Z,56.00
2018-11-21T20:27:49.201Z,56.40
2018-11-21T20:30:19.118Z,55.90
2018-11-21T20:32:47.016Z,56.20
2018-11-21T20:35:15.504Z,55.80
2018-11-21T20:37:43.839Z,56.20
2018-11-21T20:40:17.741Z,55.90
2018-11-21T20:42:46.238Z,56.00
2018-11-21T20:45:18.384Z,56.40
2018-11-21T20:47:48.452Z,56.70
2018-11-21T20:50:16.485Z,56.80
2018-11-21T20:52:45.815Z,56.90
2018-11-21T20:55:14.271Z,57.20
2018-11-21T20:57:42.662Z,58.10
2018-11-21T21:00:14.356Z,57.40
2018-11-21T21:02:42.435Z,57.30
2018-11-21T21:05:11.590Z,57.30
2018-11-21T21:07:40.905Z,56.90
2018-11-21T21:10:11.292Z,57.30
2018-11-21T21:12:39.344Z,57.70
2018-11-21T21:15:09.456Z,57.90
2018-11-21T21:17:39.773Z,57.30
2018-11-21T21:20:11.422Z,57.40
2018-11-21T21:22:39.969Z,57.30
2018-11-21T21:25:15.672Z,57.50
2018-11-21T21:27:43.431Z,57.60
2018-11-21T21:30:18.941Z,57.50
2018-11-21T21:32:47.168Z,57.60
2018-11-21T21:35:17.796Z,58.10
2018-11-21T21:37:45.533Z,57.80
2018-11-21T21:40:20.259Z,58.70
2018-11-21T21:42:43.137Z,58.40
2018-11-21T21:45:13.061Z,58.10
2018-11-21T21:47:41.769Z,58.40
2018-11-21T21:50:10.148Z,58.00
2018-11-21T21:52:37.947Z,58.60
2018-11-21T21:55:09.693Z,57.80
2018-11-21T21:57:37.516Z,58.20
2018-11-21T22:00:19.614Z,58.60
2018-11-21T22:02:48.950Z,58.30
2018-11-21T22:05:16.714Z,58.30
2018-11-21T22:07:44.696Z,58.00
2018-11-21T22:10:14.028Z,58.10
2018-11-21T22:12:41.904Z,58.40
2018-11-21T22:15:22.567Z,58.90
2018-11-21T22:17:51.688Z,58.60
2018-11-21T22:20:19.866Z,58.80
2018-11-21T22:22:48.252Z,58.40
2018-11-21T22:25:16.273Z,58.90
2018-11-21T22:27:44.002Z,59.20
2018-11-21T22:30:13.393Z,58.20
2018-11-21T22:32:42.685Z,58.60
2018-11-21T22:35:11.774Z,60.00
2018-11-21T22:37:51.114Z,59.60
2018-11-21T22:40:14.442Z,59.50
2018-11-21T22:42:43.203Z,58.80
2018-11-21T22:45:12.644Z,59.20
2018-11-21T22:47:40.968Z,58.80
2018-11-21T22:50:10.905Z,58.90
2018-11-21T22:52:38.803Z,58.60
2018-11-21T22:55:09.894Z,58.60
2018-11-21T22:57:37.901Z,58.40
2018-11-21T23:00:13.551Z,58.20
2018-11-21T23:02:41.332Z,58.80
2018-11-21T23:05:13.304Z,59.10
2018-11-21T23:07:42.509Z,59.30
2018-11-21T23:10:12.399Z,59.20
2018-11-21T23:12:40.439Z,59.20
2018-11-21T23:15:09.507Z,59.10
2018-11-21T23:17:37.244Z,58.70
2018-11-21T23:20:08.533Z,58.50
2018-11-21T23:22:36.258Z,58.60
2018-11-21T23:25:04.621Z,58.90
2018-11-21T23:27:33.104Z,59.60
2018-11-21T23:30:00.768Z,59.90
2018-11-21T23:32:30.972Z,59.40
2018-11-21T23:34:58.899Z,59.30
2018-11-21T23:37:26.548Z,59.60
2018-11-21T23:39:54.709Z,59.10
2018-11-21T23:42:22.855Z,59.60
2018-11-21T23:44:50.657Z,59.90
2018-11-21T23:47:18.324Z,59.40
2018-11-21T23:49:46.847Z,59.20
2018-11-21T23:52:15.077Z,59.50
2018-11-21T23:54:42.555Z,59.60
2018-11-21T23:57:16.170Z,59.90
2018-11-21T23:59:37.985Z,60.20
